Time;durP1;ratioP1;P1;durP2;ratioP2;P2;SDS_P1;SDS_P2;PMS_P1;PMS_P2;Temp;Humidity;BMP_temperature;BMP_pressure;BME280_temperature;BME280_humidity;BME280_pressure;Samples;Min_cycle;Max_cycle;Signal;HPM_P1;HPM_P2
2022/05/11 00:00:16;;;;;;;22.87;21.67;;;19.00;42.20;;;;;;5000524;28;20604;-84
2022/05/11 00:02:42;;;;;;;24.47;23.17;;;18.90;42.60;;;;;;4999994;28;20225;-83
2022/05/11 00:05:10;;;;;;;23.50;22.20;;;18.90;42.40;;;;;;4999155;28;20506;-84
2022/05/11 00:07:36;;;;;;;22.90;21.70;;;18.90;42.00;;;;;;4999623;28;20778;-84
2022/05/11 00:10:11;;;;;;;23.07;21.83;;;18.80;42.40;;;;;;4998633;28;20456;-84
2022/05/11 00:12:42;;;;;;;22.10;21.10;;;18.80;42.20;;;;;;4999702;28;20728;-83
2022/05/11 00:15:10;;;;;;;23.07;21.90;;;18.80;42.20;;;;;;4999736;28;20462;-84
2022/05/11 00:17:36;;;;;;;23.43;22.13;;;18.90;41.90;;;;;;5000282;28;21112;-84
2022/05/11 00:20:03;;;;;;;22.63;21.53;;;18.90;41.70;;;;;;5000068;28;20694;-83
2022/05/11 00:22:28;;;;;;;23.33;22.13;;;18.90;42.20;;;;;;4999469;28;20463;-84
2022/05/11 00:24:54;;;;;;;21.87;20.77;;;18.90;42.30;;;;;;4999362;28;20463;-85
2022/05/11 00:27:19;;;;;;;22.77;21.57;;;18.80;42.30;;;;;;4999310;28;20225;-83
2022/05/11 00:29:45;;;;;;;22.23;21.23;;;18.80;42.20;;;;;;4997568;28;20701;-83
2022/05/11 00:32:11;;;;;;;22.63;21.37;;;18.70;42.60;;;;;;4999681;28;20615;-83
2022/05/11 00:34:38;;;;;;;23.17;22.07;;;18.60;41.40;;;;;;4999095;28;20312;-84
2022/05/11 00:37:04;;;;;;;21.40;20.40;;;18.50;41.50;;;;;;5002707;28;20232;-83
2022/05/11 00:39:32;;;;;;;22.57;21.40;;;18.50;40.50;;;;;;5000142;28;20960;-84
2022/05/11 00:42:01;;;;;;;22.30;21.20;;;18.60;41.20;;;;;;5003414;28;20225;-90
2022/05/11 00:44:27;;;;;;;22.40;21.17;;;18.60;40.60;;;;;;4999342;28;20543;-83
2022/05/11 00:47:32;;;;;;;23.33;22.10;;;18.60;41.10;;;;;;4999146;28;20527;-85
2022/05/11 00:50:03;;;;;;;23.67;22.47;;;18.60;40.40;;;;;;4940808;28;20272;-84
2022/05/11 00:52:48;;;;;;;22.40;21.40;;;18.60;40.60;;;;;;4989162;28;21042;-84
2022/05/11 00:55:23;;;;;;;21.60;20.70;;;18.60;40.10;;;;;;4997880;28;20455;-85
2022/05/11 00:58:04;;;;;;;21.70;20.60;;;18.60;40.40;;;;;;4999000;28;20463;-85
2022/05/11 01:00:30;;;;;;;20.97;19.97;;;18.60;40.50;;;;;;4999421;28;20567;-84
2022/05/11 01:03:09;;;;;;;21.70;20.53;;;18.60;40.50;;;;;;4998894;28;20527;-84
2022/05/11 01:05:35;;;;;;;21.97;20.90;;;18.60;40.00;;;;;;4996884;28;20459;-85
2022/05/11 01:08:01;;;;;;;21.30;20.20;;;18.60;40.50;;;;;;4998948;28;20966;-85
2022/05/11 01:10:32;;;;;;;21.40;20.40;;;18.60;40.40;;;;;;4999037;28;20651;-85
2022/05/11 01:13:01;;;;;;;21.60;20.50;;;18.60;40.20;;;;;;4998816;28;20539;-83
2022/05/11 01:15:31;;;;;;;20.50;19.60;;;18.60;40.40;;;;;;4999380;28;21030;-84
2022/05/11 01:17:57;;;;;;;21.63;20.20;;;18.60;40.60;;;;;;4998595;28;20514;-83
2022/05/11 01:20:24;;;;;;;21.67;20.60;;;18.70;40.90;;;;;;4998137;28;20499;-84
2022/05/11 01:23:21;;;;;;;21.47;20.40;;;18.70;40.70;;;;;;4998452;28;20823;-84
2022/05/11 01:25:47;;;;;;;21.30;20.20;;;18.80;40.30;;;;;;4997073;28;20463;-85
2022/05/11 01:28:17;;;;;;;21.30;20.20;;;18.80;40.30;;;;;;4998743;28;20445;-83
2022/05/11 01:30:48;;;;;;;21.67;20.27;;;18.70;40.80;;;;;;4998696;28;20808;-83
2022/05/11 01:33:17;;;;;;;20.93;20.03;;;18.70;41.00;;;;;;4998088;28;20456;-84
2022/05/11 01:35:45;;;;;;;21.23;20.23;;;18.60;41.50;;;;;;4997285;28;20462;-84
2022/05/11 01:38:26;;;;;;;21.60;20.60;;;18.60;40.90;;;;;;4998735;28;20460;-84
2022/05/11 01:40:51;;;;;;;21.50;20.50;;;18.60;41.40;;;;;;4998456;28;20487;-83
2022/05/11 01:43:26;;;;;;;23.07;21.97;;;18.60;42.00;;;;;;4998319;28;20582;-83
2022/05/11 01:45:52;;;;;;;21.67;20.67;;;18.50;41.70;;;;;;4999476;28;20255;-83
2022/05/11 01:48:18;;;;;;;21.70;20.60;;;18.40;42.30;;;;;;4997532;28;20488;-84
2022/05/11 01:50:44;;;;;;;22.27;21.17;;;18.40;43.00;;;;;;4996804;28;20456;-84
2022/05/11 01:53:11;;;;;;;22.67;21.47;;;18.60;42.50;;;;;;4997800;28;21007;-84
2022/05/11 01:55:37;;;;;;;21.70;20.60;;;18.70;41.90;;;;;;4997304;28;20798;-84
2022/05/11 01:58:06;;;;;;;22.17;21.07;;;18.70;41.60;;;;;;4998082;28;20474;-84
2022/05/11 02:00:33;;;;;;;21.83;20.73;;;18.70;41.40;;;;;;4996466;28;20539;-84
2022/05/11 02:02:58;;;;;;;21.17;20.17;;;18.60;41.80;;;;;;4998522;28;20933;-84
2022/05/11 02:08:09;;;;;;;22.77;21.73;;;18.50;42.50;;;;;;4998152;28;20375;-84
2022/05/11 02:10:35;;;;;;;23.67;22.43;;;18.40;42.30;;;;;;4997810;28;20459;-84
2022/05/11 02:13:01;;;;;;;22.83;21.70;;;18.50;42.00;;;;;;4998252;28;20979;-84
2022/05/11 02:15:27;;;;;;;23.40;22.20;;;18.50;41.90;;;;;;4997875;28;20448;-84
2022/05/11 02:17:53;;;;;;;22.07;20.97;;;18.50;41.90;;;;;;4994712;28;20602;-84
2022/05/11 02:20:20;;;;;;;21.23;20.33;;;18.50;41.60;;;;;;4993259;28;20479;-84
2022/05/11 02:22:46;;;;;;;23.83;22.83;;;18.60;41.30;;;;;;4995658;28;20522;-84
2022/05/11 02:25:15;;;;;;;23.10;22.10;;;18.60;41.10;;;;;;4992038;28;20509;-84
2022/05/11 02:27:41;;;;;;;23.70;22.70;;;18.60;41.20;;;;;;4995374;28;20448;-84
2022/05/11 02:30:10;;;;;;;21.80;20.20;;;18.60;41.50;;;;;;4996136;28;20456;-85
2022/05/11 02:32:37;;;;;;;23.40;22.30;;;18.60;41.40;;;;;;4979214;28;20460;-84
2022/05/11 02:35:13;;;;;;;22.40;21.30;;;18.60;41.50;;;;;;4993810;28;20544;-84
2022/05/11 02:37:57;;;;;;;22.50;21.47;;;18.50;41.80;;;;;;4996396;28;20494;-84
2022/05/11 02:40:29;;;;;;;23.43;22.23;;;18.60;41.70;;;;;;4994394;28;20483;-84
2022/05/11 02:42:55;;;;;;;23.17;21.87;;;18.60;42.00;;;;;;4995321;28;20463;-84
2022/05/11 02:45:22;;;;;;;22.50;21.40;;;18.50;42.10;;;;;;4995637;28;20467;-84
2022/05/11 02:47:49;;;;;;;22.60;21.70;;;18.50;42.30;;;;;;4994991;28;20588;-84
2022/05/11 02:50:25;;;;;;;25.03;23.77;;;18.50;42.50;;;;;;4994853;28;20559;-84
2022/05/11 02:52:54;;;;;;;23.07;21.70;;;18.50;42.70;;;;;;4995873;28;20832;-84
2022/05/11 02:55:20;;;;;;;23.47;22.37;;;18.40;42.70;;;;;;4995088;28;20531;-84
2022/05/11 02:57:46;;;;;;;22.77;21.77;;;18.40;42.70;;;;;;4995292;28;20976;-84
2022/05/11 03:00:15;;;;;;;23.27;22.07;;;18.40;42.60;;;;;;4994350;28;20472;-84
2022/05/11 03:02:41;;;;;;;24.50;22.90;;;18.40;43.30;;;;;;4995471;28;20661;-83
2022/05/11 03:05:09;;;;;;;23.87;22.67;;;18.30;43.80;;;;;;4991369;28;20959;-84
2022/05/11 03:07:35;;;;;;;24.37;23.17;;;18.20;43.50;;;;;;4993738;28;20460;-84
2022/05/11 03:10:00;;;;;;;24.30;23.10;;;18.30;43.50;;;;;;4992333;28;21254;-84
2022/05/11 03:12:26;;;;;;;24.50;23.40;;;18.30;43.60;;;;;;4995270;28;20685;-83
2022/05/11 03:14:55;;;;;;;24.83;23.63;;;18.40;43.30;;;;;;4991615;28;20286;-84
2022/05/11 03:17:21;;;;;;;23.93;22.83;;;18.30;43.90;;;;;;4994605;28;20732;-84
2022/05/11 03:19:46;;;;;;;24.07;22.97;;;18.30;43.90;;;;;;4992517;28;20480;-83
2022/05/11 03:22:12;;;;;;;23.77;22.67;;;18.40;43.60;;;;;;4995040;28;20448;-84
2022/05/11 03:24:38;;;;;;;25.60;24.40;;;18.40;43.40;;;;;;4992118;28;20260;-84
2022/05/11 03:27:04;;;;;;;24.40;23.10;;;18.40;43.70;;;;;;4995180;28;20490;-84
2022/05/11 03:29:31;;;;;;;25.30;23.80;;;18.40;43.50;;;;;;4992443;28;20534;-84
2022/05/11 03:34:41;;;;;;;23.90;22.87;;;18.40;43.00;;;;;;4994059;28;20451;-84
2022/05/11 03:37:18;;;;;;;24.00;22.90;;;18.30;43.10;;;;;;4994964;28;20456;-84
2022/05/11 03:39:47;;;;;;;25.30;24.20;;;18.40;42.90;;;;;;4993428;28;20464;-84
2022/05/11 03:42:16;;;;;;;24.80;23.63;;;18.40;42.90;;;;;;4995520;28;20456;-84
2022/05/11 03:44:42;;;;;;;26.07;24.73;;;18.40;42.60;;;;;;4994416;28;20452;-84
2022/05/11 03:47:07;;;;;;;23.57;22.47;;;18.40;42.70;;;;;;4996257;28;20463;-84
2022/05/11 03:49:33;;;;;;;24.00;22.90;;;18.40;42.70;;;;;;4992886;28;20822;-84
2022/05/11 03:52:01;;;;;;;24.90;23.60;;;18.40;42.50;;;;;;4997168;28;20239;-84
2022/05/11 03:54:26;;;;;;;24.93;23.83;;;18.50;42.80;;;;;;4992944;28;21416;-84
2022/05/11 03:56:52;;;;;;;24.70;23.60;;;18.40;42.60;;;;;;4995284;28;20455;-84
2022/05/11 03:59:18;;;;;;;25.03;23.83;;;18.40;42.80;;;;;;4992575;28;20236;-84
2022/05/11 04:01:44;;;;;;;25.07;23.67;;;18.20;43.20;;;;;;4994564;28;20548;-84
2022/05/11 04:04:10;;;;;;;25.27;23.87;;;18.20;43.50;;;;;;4993766;28;20225;-84
2022/05/11 04:06:35;;;;;;;25.10;24.00;;;18.20;43.40;;;;;;4985324;28;20223;-85
2022/05/11 04:09:01;;;;;;;24.83;23.73;;;18.20;43.70;;;;;;4994224;28;20233;-85
2022/05/11 04:11:28;;;;;;;25.33;24.23;;;18.10;43.60;;;;;;4985655;28;21668;-85
2022/05/11 04:13:55;;;;;;;24.90;23.70;;;18.20;43.80;;;;;;4996308;28;20447;-85
2022/05/11 04:16:24;;;;;;;25.70;24.50;;;18.20;43.40;;;;;;4995729;28;20444;-85
2022/05/11 04:18:50;;;;;;;25.27;23.97;;;18.20;43.70;;;;;;4999783;28;20455;-84
2022/05/11 04:21:15;;;;;;;23.90;22.90;;;18.20;43.40;;;;;;4997433;28;20464;-83
2022/05/11 04:23:41;;;;;;;24.73;23.63;;;18.20;43.30;;;;;;4999619;28;20287;-83
2022/05/11 04:26:12;;;;;;;24.67;23.47;;;18.20;43.10;;;;;;4998918;28;20229;-83
2022/05/11 04:28:39;;;;;;;24.70;23.50;;;18.10;43.50;;;;;;5000275;28;20317;-87
2022/05/11 04:31:09;;;;;;;24.97;23.70;;;18.10;43.60;;;;;;4993953;28;21167;-83
2022/05/11 04:33:36;;;;;;;23.77;22.67;;;18.10;43.90;;;;;;5003565;28;20880;-82
2022/05/11 04:36:03;;;;;;;24.23;23.00;;;18.10;43.90;;;;;;5001309;28;20471;-81
2022/05/11 04:38:29;;;;;;;24.70;23.40;;;18.00;44.50;;;;;;5004329;28;21018;-82
2022/05/11 04:40:55;;;;;;;23.17;22.00;;;18.00;44.40;;;;;;5005782;28;20475;-82
2022/05/11 04:43:21;;;;;;;24.30;23.20;;;17.90;44.30;;;;;;4999716;28;20232;-83
2022/05/11 04:45:47;;;;;;;24.17;22.90;;;17.90;44.80;;;;;;4996544;28;20876;-84
2022/05/11 04:48:17;;;;;;;23.13;22.13;;;17.90;44.80;;;;;;4995890;28;20245;-84
2022/05/11 04:50:45;;;;;;;24.90;23.50;;;17.80;44.30;;;;;;4990528;28;20842;-82
2022/05/11 04:53:14;;;;;;;24.63;23.23;;;17.80;43.80;;;;;;5000021;28;20539;-83
2022/05/11 04:55:40;;;;;;;23.90;22.80;;;17.90;44.10;;;;;;4998756;28;20456;-82
2022/05/11 04:58:06;;;;;;;25.40;23.50;;;17.80;43.90;;;;;;5000574;28;20455;-83
2022/05/11 05:00:33;;;;;;;24.03;22.83;;;17.90;43.80;;;;;;5000475;28;20850;-82
2022/05/11 05:03:01;;;;;;;24.77;23.57;;;17.90;43.50;;;;;;5000134;28;20452;-83
2022/05/11 05:05:27;;;;;;;24.53;23.33;;;17.90;44.00;;;;;;5000565;28;20444;-83
2022/05/11 05:07:53;;;;;;;23.20;22.00;;;17.80;43.40;;;;;;5000122;28;20563;-84
2022/05/11 05:10:21;;;;;;;22.80;21.80;;;17.80;43.80;;;;;;5002335;28;20255;-81
2022/05/11 05:12:47;;;;;;;24.37;23.27;;;17.80;44.00;;;;;;5001399;28;20484;-82
2022/05/11 05:15:14;;;;;;;23.30;22.20;;;17.80;44.50;;;;;;5001487;28;20881;-85
2022/05/11 05:17:40;;;;;;;23.53;22.43;;;17.90;44.30;;;;;;5002363;28;20271;-83
2022/05/11 05:20:07;;;;;;;23.20;22.20;;;17.80;43.40;;;;;;5005446;28;20488;-83
2022/05/11 05:22:34;;;;;;;25.37;24.17;;;17.80;42.60;;;;;;5000032;28;20237;-83
2022/05/11 05:25:05;;;;;;;24.80;23.07;;;17.80;43.20;;;;;;5002571;28;20456;-90
2022/05/11 05:27:31;;;;;;;24.90;23.53;;;17.80;42.20;;;;;;4992139;28;20540;-86
2022/05/11 05:32:43;;;;;;;24.90;23.70;;;17.90;42.40;;;;;;5002137;28;20555;-83
2022/05/11 05:35:12;;;;;;;25.50;24.30;;;17.90;43.00;;;;;;4991054;28;20460;-87
2022/05/11 05:37:38;;;;;;;24.67;23.33;;;17.90;42.40;;;;;;4997999;28;20460;-87
2022/05/11 05:40:05;;;;;;;24.83;23.73;;;17.90;42.80;;;;;;4999829;28;20471;-89
2022/05/11 05:42:31;;;;;;;23.93;22.83;;;17.90;43.20;;;;;;4998478;28;20452;-87
2022/05/11 05:44:57;;;;;;;24.63;23.10;;;17.90;42.90;;;;;;4998953;28;20467;-88
2022/05/11 05:47:23;;;;;;;23.20;22.20;;;18.00;43.30;;;;;;4991827;28;21136;-88
2022/05/11 05:49:49;;;;;;;24.27;23.00;;;18.00;42.30;;;;;;4981110;28;20222;-91
2022/05/11 05:52:17;;;;;;;23.90;22.80;;;18.10;43.10;;;;;;4979933;28;20228;-88
2022/05/11 05:54:45;;;;;;;24.07;22.87;;;18.10;43.60;;;;;;4980539;28;20260;-91
2022/05/11 05:57:11;;;;;;;23.80;22.70;;;18.20;43.70;;;;;;4997670;28;20474;-90
2022/05/11 05:59:37;;;;;;;23.47;22.37;;;18.20;43.00;;;;;;4999988;28;20468;-88
2022/05/11 06:02:03;;;;;;;29.67;23.13;;;18.30;43.00;;;;;;4999943;28;20964;-89
2022/05/11 06:04:36;;;;;;;23.30;22.10;;;18.40;42.80;;;;;;5000704;28;20221;-92
2022/05/11 06:07:02;;;;;;;22.73;21.70;;;18.50;42.70;;;;;;5003316;28;20516;-87
2022/05/11 06:09:28;;;;;;;23.30;21.97;;;18.50;42.10;;;;;;4982763;28;20544;-90
2022/05/11 06:11:54;;;;;;;25.00;23.70;;;18.70;41.20;;;;;;4979154;28;20214;-90
2022/05/11 06:14:20;;;;;;;24.33;22.93;;;18.80;41.10;;;;;;4979156;28;20451;-90
2022/05/11 06:16:45;;;;;;;24.37;23.07;;;18.80;40.20;;;;;;4979083;28;20268;-88
2022/05/11 06:19:11;;;;;;;24.43;23.00;;;19.00;38.70;;;;;;4979111;28;20225;-89
2022/05/11 06:21:36;;;;;;;23.57;22.53;;;19.20;38.40;;;;;;4997369;28;20560;-90
2022/05/11 06:24:02;;;;;;;23.07;21.77;;;19.20;39.60;;;;;;4998822;28;20236;-90
2022/05/11 06:26:28;;;;;;;24.20;23.20;;;19.30;39.10;;;;;;4999184;28;20221;-90
2022/05/11 06:28:56;;;;;;;23.20;22.07;;;19.30;39.20;;;;;;4999218;28;20852;-90
2022/05/11 06:31:23;;;;;;;23.83;22.63;;;19.30;39.70;;;;;;4999595;28;20491;-90
2022/05/11 06:33:53;;;;;;;22.63;21.37;;;19.40;38.60;;;;;;4999963;28;20464;-90
2022/05/11 06:36:20;;;;;;;22.83;21.80;;;19.50;38.60;;;;;;5002897;28;20448;-91
2022/05/11 06:38:46;;;;;;;22.73;21.73;;;19.60;38.40;;;;;;4999294;28;20467;-90
2022/05/11 06:41:17;;;;;;;23.63;22.23;;;19.70;36.80;;;;;;5000954;28;20499;-90
2022/05/11 06:43:44;;;;;;;23.30;22.30;;;19.80;36.70;;;;;;5000687;28;20295;-91
2022/05/11 06:46:10;;;;;;;24.53;23.43;;;19.80;37.10;;;;;;4998499;28;20460;-88
2022/05/11 06:48:36;;;;;;;23.20;22.10;;;19.90;36.90;;;;;;5000013;28;21020;-90
2022/05/11 06:51:02;;;;;;;23.67;22.40;;;19.90;36.00;;;;;;4999925;28;20527;-91
2022/05/11 06:59:16;;;;;;;24.37;23.27;;;20.00;35.10;;;;;;4997982;28;20550;-90
2022/05/11 07:01:42;;;;;;;23.00;22.10;;;20.10;36.30;;;;;;4987856;28;20483;-86
2022/05/11 07:04:07;;;;;;;23.67;22.57;;;20.10;35.20;;;;;;4997019;28;20641;-91
2022/05/11 07:06:34;;;;;;;21.40;20.40;;;20.20;36.00;;;;;;4998265;28;20318;-91
2022/05/11 07:08:59;;;;;;;23.43;22.43;;;20.20;35.40;;;;;;5000912;28;20232;-92
2022/05/11 07:14:09;;;;;;;24.57;23.40;;;20.40;34.60;;;;;;5003192;28;20231;-91
2022/05/11 07:16:36;;;;;;;22.60;21.70;;;20.40;35.10;;;;;;5002414;28;20452;-88
2022/05/11 07:19:02;;;;;;;24.67;23.43;;;20.40;33.90;;;;;;4998363;28;20612;-89
2022/05/11 07:21:28;;;;;;;23.97;22.77;;;20.50;33.40;;;;;;4999084;28;20459;-88
2022/05/11 07:23:54;;;;;;;24.53;23.00;;;20.60;33.30;;;;;;5000766;28;20444;-88
2022/05/11 07:26:21;;;;;;;23.13;22.13;;;20.70;33.60;;;;;;4998077;28;20225;-88
2022/05/11 07:28:47;;;;;;;23.57;22.57;;;20.90;32.80;;;;;;5007922;28;20375;-88
2022/05/11 07:31:13;;;;;;;22.83;21.83;;;20.90;32.20;;;;;;4997023;28;21013;-89
2022/05/11 07:33:39;;;;;;;23.70;22.60;;;21.00;32.00;;;;;;4999309;28;20312;-88
2022/05/11 07:36:05;;;;;;;21.90;21.00;;;21.00;32.60;;;;;;5000776;28;20570;-89
2022/05/11 07:38:31;;;;;;;23.40;22.20;;;21.10;32.30;;;;;;4999038;28;20467;-89
2022/05/11 07:40:57;;;;;;;21.87;20.93;;;21.20;31.50;;;;;;5001057;28;20384;-88
2022/05/11 07:43:23;;;;;;;22.57;21.50;;;21.20;30.90;;;;;;5000418;28;20823;-89
2022/05/11 07:45:49;;;;;;;23.43;22.27;;;21.40;30.70;;;;;;4998941;28;20241;-89
2022/05/11 07:48:19;;;;;;;22.90;21.70;;;21.40;31.10;;;;;;4999383;28;21055;-88
2022/05/11 07:50:44;;;;;;;22.60;21.60;;;21.50;30.50;;;;;;5000071;28;20229;-88
2022/05/11 07:53:10;;;;;;;22.50;21.50;;;21.50;31.20;;;;;;5002453;28;20448;-89
2022/05/11 07:55:36;;;;;;;24.30;23.20;;;21.60;31.10;;;;;;5004655;28;20533;-89
2022/05/11 08:00:46;;;;;;;22.60;21.50;;;21.60;29.80;;;;;;5000191;28;20491;-89
2022/05/11 08:03:12;;;;;;;23.03;21.97;;;21.70;29.40;;;;;;5001831;28;20464;-89
2022/05/11 08:05:38;;;;;;;22.73;21.73;;;21.80;29.50;;;;;;5001936;28;20347;-88
2022/05/11 08:08:06;;;;;;;22.33;21.33;;;22.00;28.90;;;;;;5003566;28;20948;-89
2022/05/11 08:10:42;;;;;;;22.70;21.80;;;21.90;29.00;;;;;;5002537;28;20542;-89
2022/05/11 08:13:09;;;;;;;22.70;21.80;;;22.00;29.60;;;;;;5004805;28;20455;-89
2022/05/11 08:15:43;;;;;;;22.53;21.57;;;22.10;29.10;;;;;;5009926;28;20455;-89
2022/05/11 08:18:09;;;;;;;21.90;21.00;;;22.10;28.90;;;;;;5004545;28;20559;-89
2022/05/11 08:20:38;;;;;;;22.90;22.00;;;22.10;28.90;;;;;;5002667;28;20468;-89
2022/05/11 08:23:04;;;;;;;23.10;22.00;;;22.20;29.40;;;;;;5002724;28;20572;-89
2022/05/11 08:25:33;;;;;;;23.37;22.00;;;22.20;28.70;;;;;;5004652;28;20463;-88
2022/05/11 08:27:59;;;;;;;22.27;21.27;;;22.30;28.70;;;;;;5002836;28;20490;-88
2022/05/11 08:33:26;;;;;;;22.03;21.13;;;22.40;28.40;;;;;;5005356;28;20509;-89
2022/05/11 08:35:59;;;;;;;23.60;22.13;;;22.50;28.60;;;;;;4999084;28;20458;-88
2022/05/11 08:38:28;;;;;;;23.77;22.70;;;22.50;27.60;;;;;;5001397;28;20494;-89
2022/05/11 08:41:18;;;;;;;22.33;21.47;;;22.60;27.20;;;;;;4985423;28;20904;-89
2022/05/11 08:43:44;;;;;;;22.77;21.67;;;22.60;26.60;;;;;;4984329;28;20833;-89
2022/05/11 08:46:29;;;;;;;23.23;22.13;;;22.70;27.70;;;;;;5002314;28;20448;-89
2022/05/11 08:48:59;;;;;;;22.83;21.93;;;22.70;27.70;;;;;;5001769;28;20466;-88
2022/05/11 08:51:51;;;;;;;22.20;21.30;;;22.70;27.10;;;;;;4999157;28;20489;-90
2022/05/11 08:54:39;;;;;;;22.63;21.53;;;22.90;27.40;;;;;;4982042;28;20461;-89
2022/05/11 08:57:12;;;;;;;23.17;22.07;;;22.90;27.20;;;;;;4987144;28;20538;-90
2022/05/11 08:59:39;;;;;;;22.67;21.77;;;23.00;27.00;;;;;;4991488;28;20504;-90
2022/05/11 09:02:19;;;;;;;22.60;21.50;;;23.00;26.80;;;;;;4991141;28;20444;-90
2022/05/11 09:04:52;;;;;;;21.87;20.97;;;23.10;27.30;;;;;;5003303;28;20937;-90
2022/05/11 09:07:18;;;;;;;23.33;22.20;;;23.10;27.00;;;;;;5000792;28;20484;-90
2022/05/11 09:09:44;;;;;;;22.40;21.40;;;23.20;27.10;;;;;;5000049;28;20448;-90
2022/05/11 09:12:11;;;;;;;22.70;21.60;;;23.20;27.30;;;;;;5000137;28;20445;-90
2022/05/11 09:14:39;;;;;;;22.40;21.50;;;23.40;27.20;;;;;;4998254;28;20287;-89
2022/05/11 09:17:19;;;;;;;22.60;21.50;;;23.50;26.50;;;;;;4999966;28;20675;-89
2022/05/11 09:19:46;;;;;;;22.93;21.70;;;23.50;25.90;;;;;;4999999;28;20534;-88
2022/05/11 09:22:17;;;;;;;21.73;20.63;;;23.60;26.10;;;;;;5001932;28;20464;-89
2022/05/11 09:24:52;;;;;;;22.10;21.20;;;23.70;25.90;;;;;;5000372;28;20468;-89
2022/05/11 09:27:37;;;;;;;22.30;21.40;;;23.70;26.50;;;;;;5000088;28;20482;-86
2022/05/11 09:30:15;;;;;;;22.37;21.27;;;23.70;26.00;;;;;;5003107;28;20468;-89
2022/05/11 09:32:44;;;;;;;22.13;21.03;;;23.80;26.00;;;;;;5003194;28;20456;-88
2022/05/11 09:35:45;;;;;;;22.97;21.97;;;23.90;26.30;;;;;;5000259;28;20853;-89
2022/05/11 09:38:17;;;;;;;22.40;21.07;;;23.90;25.90;;;;;;4976443;28;20473;-90
2022/05/11 09:40:56;;;;;;;23.33;21.77;;;23.90;26.00;;;;;;5000752;28;20476;-90
2022/05/11 09:43:30;;;;;;;23.30;22.20;;;24.20;25.70;;;;;;5002998;28;20982;-89
2022/05/11 09:45:56;;;;;;;22.00;21.10;;;24.20;25.80;;;;;;5001756;28;20455;-89
2022/05/11 09:48:31;;;;;;;21.53;20.60;;;24.30;25.90;;;;;;5003516;28;20859;-90
2022/05/11 09:51:21;;;;;;;23.13;21.70;;;24.30;26.30;;;;;;5002671;28;20645;-90
2022/05/11 09:54:15;;;;;;;23.23;21.93;;;24.40;26.40;;;;;;5003223;28;20452;-90
2022/05/11 09:56:50;;;;;;;22.53;21.40;;;24.60;25.10;;;;;;5003041;28;20474;-89
2022/05/11 09:59:31;;;;;;;21.20;20.20;;;24.70;25.40;;;;;;5006030;28;20539;-89
2022/05/11 10:02:32;;;;;;;22.53;21.10;;;24.60;25.50;;;;;;5005479;28;20494;-90
2022/05/11 10:05:11;;;;;;;21.60;20.67;;;24.60;25.80;;;;;;5017836;28;20527;-81
2022/05/11 10:08:21;;;;;;;21.83;20.73;;;24.70;25.40;;;;;;5003687;28;20447;-81
2022/05/11 10:11:01;;;;;;;22.23;21.23;;;24.80;25.00;;;;;;5001717;28;21039;-81
2022/05/11 10:13:38;;;;;;;22.20;20.93;;;24.70;25.90;;;;;;4999261;28;20462;-90
2022/05/11 10:21:54;;;;;;;21.03;20.13;;;25.10;24.10;;;;;;4983590;28;20520;-90
2022/05/11 10:24:45;;;;;;;21.87;20.77;;;25.10;25.10;;;;;;4979556;28;20505;-86
2022/05/11 10:27:20;;;;;;;21.75;20.85;;;25.00;25.10;;;;;;4987006;28;20418;-90
2022/05/11 10:29:49;;;;;;;22.80;21.80;;;25.00;25.10;;;;;;4977173;28;20221;-90
2022/05/11 10:32:38;;;;;;;21.43;20.40;;;25.00;25.10;;;;;;4992301;28;21492;-83
2022/05/11 10:35:28;;;;;;;21.80;20.80;;;25.20;24.10;;;;;;4979284;28;20445;-81
2022/05/11 10:38:16;;;;;;;21.37;20.57;;;25.30;24.60;;;;;;4996163;28;20498;-82
2022/05/11 10:41:01;;;;;;;20.80;19.90;;;25.30;23.50;;;;;;4996787;28;20522;-82
2022/05/11 10:43:40;;;;;;;20.37;19.57;;;25.30;23.20;;;;;;4997122;28;20459;-81
2022/05/11 10:46:06;;;;;;;19.63;18.70;;;25.30;22.30;;;;;;4996028;28;21013;-81
2022/05/11 10:49:18;;;;;;;20.97;20.07;;;25.30;22.00;;;;;;4995050;28;20448;-82
2022/05/11 10:52:17;;;;;;;20.93;20.03;;;25.30;21.50;;;;;;4987176;28;20228;-82
2022/05/11 10:54:51;;;;;;;21.50;20.30;;;25.50;22.20;;;;;;4995446;28;20889;-82
2022/05/11 10:57:33;;;;;;;21.03;20.03;;;25.60;21.80;;;;;;4997752;28;20504;-82
2022/05/11 11:00:05;;;;;;;20.20;19.20;;;25.80;20.90;;;;;;4997882;28;20507;-82
2022/05/11 11:02:57;;;;;;;19.73;19.00;;;25.80;20.30;;;;;;4996029;28;20476;-82
2022/05/11 11:05:29;;;;;;;19.40;18.60;;;25.80;20.20;;;;;;4995813;28;20455;-82
2022/05/11 11:08:06;;;;;;;19.73;18.83;;;25.80;20.00;;;;;;4997357;28;21060;-81
2022/05/11 11:10:49;;;;;;;19.70;18.70;;;25.70;20.20;;;;;;4996144;28;20451;-81
2022/05/11 11:14:03;;;;;;;19.93;19.10;;;25.90;19.90;;;;;;4955626;28;20673;-81
2022/05/11 11:16:35;;;;;;;19.50;18.60;;;26.10;18.80;;;;;;4976745;28;20855;-81
2022/05/11 11:19:11;;;;;;;19.43;18.53;;;26.00;19.50;;;;;;4977019;28;20496;-81
2022/05/11 11:21:42;;;;;;;20.57;19.60;;;26.00;19.80;;;;;;4983361;28;20524;-82
2022/05/11 11:24:17;;;;;;;19.60;18.70;;;26.00;20.10;;;;;;4977307;28;20441;-82
2022/05/11 11:26:50;;;;;;;20.90;19.90;;;26.10;19.10;;;;;;4980359;28;20440;-81
2022/05/11 11:29:20;;;;;;;21.00;20.10;;;26.10;19.30;;;;;;4998488;28;20464;-81
2022/05/11 11:31:58;;;;;;;21.50;20.30;;;26.00;19.70;;;;;;4994444;28;20451;-81
2022/05/11 11:34:32;;;;;;;20.43;19.50;;;26.10;19.00;;;;;;5000437;28;20458;-79
2022/05/11 11:37:19;;;;;;;20.40;19.50;;;25.90;20.00;;;;;;5001496;28;20452;-80
2022/05/11 11:39:44;;;;;;;19.33;18.43;;;25.90;19.70;;;;;;5001976;28;20459;-80
2022/05/11 11:42:11;;;;;;;19.83;18.83;;;25.90;19.70;;;;;;5001073;28;20444;-80
2022/05/11 11:44:45;;;;;;;20.40;19.40;;;25.90;20.20;;;;;;5001185;28;20237;-80
2022/05/11 11:47:26;;;;;;;19.60;18.80;;;25.80;20.60;;;;;;5001354;28;20447;-80
2022/05/11 11:49:54;;;;;;;20.10;19.30;;;25.90;20.20;;;;;;4999654;28;20460;-79
2022/05/11 11:53:17;;;;;;;19.70;18.90;;;26.00;20.70;;;;;;5001082;28;20743;-80
2022/05/11 11:55:44;;;;;;;20.20;19.40;;;26.10;20.00;;;;;;4922793;29;20541;-80
2022/05/11 11:58:30;;;;;;;20.97;19.70;;;26.20;19.70;;;;;;4996461;28;20479;-80
2022/05/11 12:01:07;;;;;;;20.20;19.30;;;26.20;18.80;;;;;;5000953;28;20555;-80
2022/05/11 12:03:36;;;;;;;20.60;19.80;;;26.30;19.00;;;;;;4998137;28;20475;-81
2022/05/11 12:17:39;;;;;;;19.10;18.20;;;26.60;17.30;;;;;;4981476;28;20523;-79
2022/05/11 12:20:10;;;;;;;19.60;18.07;;;26.70;16.80;;;;;;4993016;28;21015;-80
2022/05/11 12:22:43;;;;;;;18.17;17.33;;;26.60;17.30;;;;;;5000444;28;20448;-80
2022/05/11 12:25:20;;;;;;;17.87;17.27;;;26.60;16.10;;;;;;4999960;28;20526;-78
2022/05/11 12:27:47;;;;;;;19.50;18.70;;;26.70;15.90;;;;;;5000225;28;20453;-79
2022/05/11 12:30:32;;;;;;;18.73;17.93;;;26.70;17.00;;;;;;5001054;28;20458;-79
2022/05/11 12:33:04;;;;;;;18.27;17.27;;;26.90;14.30;;;;;;4998418;28;20451;-80
2022/05/11 12:35:36;;;;;;;18.57;17.60;;;26.90;14.80;;;;;;4999738;28;20444;-80
2022/05/11 12:38:12;;;;;;;18.47;17.70;;;27.00;15.00;;;;;;5000444;28;20463;-80
2022/05/11 12:40:59;;;;;;;18.77;17.60;;;27.00;15.10;;;;;;4999363;28;20510;-79
2022/05/11 12:43:26;;;;;;;18.90;17.90;;;27.10;13.80;;;;;;4999141;28;20483;-85
2022/05/11 12:45:56;;;;;;;18.00;17.30;;;27.20;13.40;;;;;;5000883;28;20468;-86
2022/05/11 12:48:39;;;;;;;18.47;17.63;;;27.20;12.90;;;;;;5000363;28;20535;-85
2022/05/11 12:51:05;;;;;;;18.17;17.37;;;27.10;13.10;;;;;;4997383;28;20461;-85
2022/05/11 12:53:34;;;;;;;19.83;18.93;;;27.10;13.50;;;;;;4980866;28;20456;-85
2022/05/11 12:56:46;;;;;;;20.00;19.20;;;27.00;14.00;;;;;;4981510;28;20229;-85
2022/05/11 12:59:24;;;;;;;19.50;18.60;;;27.00;14.10;;;;;;4983956;28;20547;-85
2022/05/11 13:01:50;;;;;;;20.83;19.83;;;27.10;14.60;;;;;;4999467;28;20448;-85
2022/05/11 13:04:25;;;;;;;20.50;19.60;;;27.00;13.90;;;;;;4998810;28;20534;-82
2022/05/11 13:06:55;;;;;;;20.87;19.87;;;27.20;12.90;;;;;;4999686;28;20452;-85
2022/05/11 13:09:40;;;;;;;19.20;18.50;;;27.30;13.40;;;;;;4999994;28;20944;-84
2022/05/11 13:12:10;;;;;;;19.17;18.47;;;27.30;13.70;;;;;;5000129;28;20448;-85
2022/05/11 13:14:43;;;;;;;19.23;18.53;;;27.30;13.40;;;;;;4999052;28;20436;-84
2022/05/11 13:17:17;;;;;;;19.43;18.53;;;27.30;14.20;;;;;;4997505;28;21040;-84
2022/05/11 13:19:42;;;;;;;19.10;18.40;;;27.20;13.60;;;;;;4999352;28;20472;-85
2022/05/11 13:22:14;;;;;;;19.13;18.20;;;27.30;13.00;;;;;;5000039;28;20456;-85
2022/05/11 13:24:50;;;;;;;18.90;17.73;;;27.40;12.60;;;;;;4999419;28;21075;-85
2022/05/11 13:27:38;;;;;;;19.07;18.27;;;27.50;12.70;;;;;;4998404;28;20975;-83